Latest Weather Observations for Rolleston Airport

IDQ60801

Issued at 3:35 pm EST Sunday 20 April 2014 (issued every 30 minutes, with the page automatically refreshed every 10 minutes)

About weather observations | Map of weather stations | Latest weather observations for QLD | Other Formats
Station Details ID: 035129 Name: ROLLESTON AIRPORT Lat: -24.46 Lon: 148.63 Height: 219.45 m
Data from the previous 72 hours. | See also: Recent months at Rolleston Airport
Date/Time
EST
Temp
°C
App
Temp
°C
Dew
Point
Rel
Hum
%
Delta-T
°C
Wind Press
QNH
hPa
Press
MSL
hPa
Rain
since 9 am
mm
Dir
 
Spd
km/h
Gust
km/h
Spd
kts
Gust
kts
20/03:30pm 29.8 28.1 8.2 26 11.9 WNW 7 13 4 7 1015.2 - 0.0
20/03:00pm 30.2 29.0 9.7 28 11.6 WNW 6 11 3 6 1015.1 1014.2 0.0
20/02:30pm 29.1 27.6 9.3 29 11.1 NNE 7 15 4 8 1015.2 - 0.0
20/02:00pm 30.2 29.1 10.7 30 11.3 NNW 7 11 4 6 1015.4 1014.5 0.0
20/01:30pm 29.2 28.1 9.9 30 11.0 N 6 9 3 5 1015.8 - 0.0
20/01:00pm 28.9 27.6 10.1 31 10.7 NNW 7 13 4 7 1016.2 1015.3 0.0
20/12:30pm 29.0 28.5 10.6 32 10.5 N 4 9 2 5 1016.8 - 0.0
20/12:00pm 27.8 26.6 9.6 32 10.2 N 6 11 3 6 1017.3 1016.3 0.0
20/11:30am 27.1 26.2 10.8 36 9.3 W 6 13 3 7 1017.9 - 0.0
20/11:00am 26.6 25.5 9.9 35 9.3 NNE 6 9 3 5 1018.3 1017.3 0.0
20/10:30am 25.6 25.8 13.1 46 7.4 W 4 9 2 5 1018.9 - 0.0
20/10:00am 24.5 24.5 12.5 47 6.9 WSW 4 6 2 3 1019.0 1018.1 0.0
20/09:30am 22.9 22.8 10.7 46 6.8 W 2 6 1 3 1019.1 - 0.0
20/09:00am 20.7 19.9 9.6 49 6.0 SSW 4 6 2 3 1018.9 1018.0 0.0
20/08:30am 18.6 17.8 9.7 56 4.8 S 4 7 2 4 1018.7 - 0.0
20/08:00am 16.2 15.4 9.8 66 3.4 S 4 6 2 3 1018.5 1017.5 0.0
20/07:30am 13.9 13.9 9.9 77 2.1 CALM 0 4 0 2 1018.3 - 0.0
20/07:00am 11.4 10.8 9.0 85 1.2 N 2 6 1 3 1018.1 1017.1 0.0
20/06:30am 11.3 11.0 8.7 84 1.3 CALM 0 0 0 0 1017.6 - 0.0
20/06:00am 11.8 11.7 9.4 85 1.2 CALM 0 2 0 1 1017.3 1016.3 0.0
20/05:30am 11.3 10.3 8.7 84 1.3 SSW 4 6 2 3 1016.9 - 0.0
20/05:00am 11.4 10.8 9.0 85 1.2 SSW 2 4 1 2 1016.5 1015.6 0.0
20/04:30am 11.2 10.5 8.4 83 1.4 NNW 2 4 1 2 1016.3 - 0.0
20/04:00am 11.3 10.7 7.6 78 1.8 CALM 0 6 0 3 1016.0 1015.1 0.0
20/03:30am 12.6 12.4 9.1 79 1.8 CALM 0 0 0 0 1015.9 - 0.0
20/03:00am 12.9 11.7 9.4 79 1.8 SSE 6 7 3 4 1016.0 1015.1 0.0
20/02:30am 12.9 12.1 8.2 73 2.4 W 2 6 1 3 1016.0 - 0.0
20/02:00am 14.1 13.9 9.1 72 2.6 CALM 0 0 0 0 1015.8 1014.9 0.0
20/01:30am 13.5 12.2 7.7 68 2.9 WNW 4 6 2 3 1016.0 - 0.0
20/01:00am 14.4 13.6 8.1 66 3.2 WSW 2 6 1 3 1016.2 1015.3 0.0
20/12:30am 14.8 13.2 7.8 63 3.5 WSW 6 9 3 5 1016.2 - 0.0
20/12:00am 14.8 11.6 8.5 66 3.2 SE 15 17 8 9 1015.8 1014.9 0.0
 
Date/Time
EST
Temp
°C
App
Temp
°C
Dew
Point
Rel
Hum
%
Delta-T
°C
Wind Press
QNH
hPa
Press
MSL
hPa
Rain
since 9 am
mm
Dir
 
Spd
km/h
Gust
km/h
Spd
kts
Gust
kts
19/11:30pm 14.1 11.5 7.9 66 3.1 SE 11 13 6 7 1016.2 - 0.0
19/11:00pm 15.9 14.3 7.9 59 4.1 S 6 7 3 4 1016.3 1015.4 0.0
19/10:30pm 16.9 15.6 7.8 55 4.6 SSW 4 6 2 3 1016.4 - 0.0
19/10:00pm 16.2 14.8 7.2 55 4.5 SSW 4 7 2 4 1016.4 1015.5 0.0
19/09:30pm 17.8 16.8 7.5 51 5.3 S 2 6 1 3 1016.4 - 0.0
19/09:00pm 18.5 18.2 8.7 53 5.1 CALM 0 0 0 0 1016.4 1015.5 0.0
19/08:30pm 19.9 18.4 7.0 43 6.6 N 4 9 2 5 1016.2 - 0.0
19/08:00pm 21.0 18.1 6.5 39 7.4 E 11 13 6 7 1015.9 1015.0 0.0
19/07:30pm 21.9 19.4 6.6 37 7.9 ENE 9 9 5 5 1015.7 - 0.0
19/07:00pm 22.4 20.4 7.0 37 8.0 ENE 7 9 4 5 1015.3 1014.4 0.0
19/06:30pm 23.8 22.0 7.0 34 8.8 N 6 7 3 4 1015.1 - 0.0
19/06:00pm 25.6 24.5 6.8 30 9.9 N 2 4 1 2 1015.0 1014.1 0.0
19/05:30pm 27.5 25.9 6.3 26 11.2 W 4 6 2 3 1014.8 - 0.0
19/05:00pm 29.0 28.0 5.8 23 12.3 CALM 0 0 0 0 1014.6 1013.6 0.0
19/04:30pm 28.5 26.4 6.0 24 11.9 ENE 6 9 3 5 1014.5 - 0.0
19/04:00pm 28.5 26.1 5.4 23 12.1 E 7 11 4 6 1014.4 1013.4 0.0
19/03:30pm 28.5 26.7 5.4 23 12.1 SSW 4 9 2 5 1014.5 - 0.0
19/03:00pm 28.6 26.3 4.8 22 12.4 W 6 13 3 7 1014.7 1013.8 0.0
19/02:30pm 28.7 26.5 5.5 23 12.2 WSW 6 13 3 7 1014.9 - 0.0
19/02:00pm 28.3 25.1 5.2 23 12.0 SW 11 24 6 13 1015.2 1014.3 0.0
19/01:30pm 27.9 25.4 4.9 23 11.9 W 7 17 4 9 1015.6 - 0.0
19/01:00pm 27.7 24.8 4.7 23 11.8 SSW 9 15 5 8 1016.0 1015.1 0.0
19/12:30pm 27.9 25.6 4.9 23 11.9 NW 6 9 3 5 1016.3 - 0.0
19/12:00pm 27.0 24.6 5.3 25 11.2 ESE 7 11 4 6 1017.0 1016.0 0.0
19/11:30am 27.3 26.2 6.7 27 11.0 S 2 7 1 4 1017.5 - 0.0
19/11:00am 26.4 25.5 7.9 31 10.0 WNW 2 6 1 3 1018.2 1017.2 0.0
19/10:30am 25.4 24.2 8.0 33 9.4 SE 4 9 2 5 1018.6 - 0.0
19/10:00am 24.2 23.0 8.2 36 8.6 SSE 4 9 2 5 1018.9 1018.0 0.0
19/09:30am 22.2 21.0 9.7 45 6.8 SW 6 7 3 4 1019.1 - 0.0
19/09:00am 20.0 19.5 9.3 50 5.7 SSW 2 6 1 3 1019.4 1018.5 0.0
19/08:30am 17.5 17.2 8.6 56 4.6 CALM 0 0 0 0 1019.4 - 0.0
19/08:00am 15.6 14.2 8.8 64 3.5 SSE 6 7 3 4 1019.2 1018.3 0.0
19/07:30am 14.0 13.2 8.0 67 3.0 S 2 6 1 3 1019.0 - 0.0
19/07:00am 12.2 11.8 8.3 77 1.9 CALM 0 0 0 0 1018.9 1018.0 0.0
19/06:30am 10.5 10.0 7.9 84 1.3 CALM 0 0 0 0 1018.5 - 0.0
19/06:00am 10.6 10.0 7.5 81 1.5 CALM 0 0 0 0 1018.3 1017.3 0.0
19/05:30am 10.3 9.3 7.4 82 1.4 SSW 2 4 1 2 1018.1 - 0.0
19/05:00am 11.5 11.0 8.0 79 1.7 CALM 0 0 0 0 1017.9 1016.9 0.0
19/04:30am 12.2 11.8 8.3 77 1.9 CALM 0 0 0 0 1017.9 - 0.0
19/04:00am 11.9 10.6 7.8 76 2.0 S 4 6 2 3 1017.7 1016.7 0.0
19/03:30am 12.2 10.5 7.5 73 2.3 SSW 6 6 3 3 1017.6 - 0.0
19/03:00am 13.0 12.5 7.9 71 2.5 CALM 0 0 0 0 1017.6 1016.6 0.0
19/02:30am 13.3 11.6 7.5 68 2.9 SSE 6 6 3 3 1017.6 - 0.0
19/02:00am 14.1 12.3 8.1 67 3.0 SSE 7 7 4 4 1017.6 1016.6 0.0
19/01:30am 13.8 12.2 7.8 67 3.0 SSE 6 7 3 4 1017.7 - 0.0
19/01:00am 13.7 12.1 8.1 69 2.8 S 6 6 3 3 1017.8 1016.8 0.0
19/12:30am 14.6 13.0 7.9 64 3.4 SSW 6 7 3 4 1018.0 - 0.0
19/12:00am 14.9 13.7 7.9 63 3.5 SSW 4 7 2 4 1017.9 1016.9 0.0
 
Date/Time
EST
Temp
°C
App
Temp
°C
Dew
Point
Rel
Hum
%
Delta-T
°C
Wind Press
QNH
hPa
Press
MSL
hPa
Rain
since 9 am
mm
Dir
 
Spd
km/h
Gust
km/h
Spd
kts
Gust
kts
18/11:30pm 15.4 14.1 7.7 60 3.9 S 4 4 2 2 1017.9 - 0.0
18/11:00pm 16.1 14.5 8.1 59 4.1 SSE 6 7 3 4 1017.8 1016.8 0.0
18/10:30pm 16.3 14.8 8.3 59 4.1 SSE 6 9 3 5 1017.8 - 0.0
18/10:00pm 16.9 14.8 8.3 57 4.4 SSE 9 9 5 5 1017.8 1016.8 0.0
18/09:30pm 17.1 15.1 8.8 58 4.3 SE 9 11 5 6 1017.8 - 0.0
18/09:00pm 16.9 14.9 8.8 59 4.2 SE 9 13 5 7 1017.7 1016.7 0.0
18/08:30pm 18.2 16.5 8.5 53 5.1 SSE 7 7 4 4 1017.4 - 0.0
18/08:00pm 19.6 18.0 8.6 49 5.8 SSE 7 7 4 4 1017.0 1016.0 0.0
18/07:30pm 20.6 18.8 7.9 44 6.6 SE 7 11 4 6 1016.7 - 0.0
18/07:00pm 22.3 20.2 8.4 41 7.4 ESE 9 11 5 6 1016.2 1015.3 0.0
18/06:30pm 22.9 21.3 8.6 40 7.7 ESE 7 9 4 5 1015.8 - 0.0
18/06:00pm 25.0 23.5 8.5 35 8.9 ESE 6 7 3 4 1015.5 1014.6 0.0
18/05:30pm 26.6 25.0 8.6 32 9.9 ESE 7 11 4 6 1015.3 - 0.0
18/05:00pm 27.8 26.2 8.6 30 10.6 ESE 7 19 4 10 1014.9 1014.0 0.0
18/04:30pm 28.2 26.2 8.5 29 10.9 S 9 15 5 8 1014.8 - 0.0
18/04:00pm 28.4 26.4 8.7 29 10.9 S 9 17 5 9 1014.6 1013.6 0.0
18/03:30pm 28.4 26.0 8.7 29 10.9 SSE 11 19 6 10 1014.5 - 0.0
18/03:00pm 28.7 26.1 7.9 27 11.4 SSW 11 20 6 11 1014.6 1013.6 0.0
18/02:30pm 29.0 26.6 8.7 28 11.3 WSW 11 22 6 12 1014.8 - 0.0
18/02:00pm 28.9 27.5 9.6 30 10.9 S 7 15 4 8 1015.2 1014.3 0.0
18/01:30pm 28.5 27.5 8.7 29 11.0 S 4 11 2 6 1015.4 - 0.0
18/01:00pm 28.2 26.3 9.0 30 10.7 WNW 9 17 5 9 1015.8 1014.9 0.0
18/12:30pm 27.6 25.7 9.0 31 10.3 S 9 24 5 13 1016.1 - 0.0
18/12:00pm 26.9 24.3 7.9 30 10.3 SE 11 20 6 11 1016.8 1015.8 0.0
18/11:30am 26.6 24.7 7.6 30 10.2 S 7 22 4 12 1017.3 - 0.0
18/11:00am 26.5 24.2 8.9 33 9.7 SSE 11 17 6 9 1017.8 1016.8 0.0
18/10:30am 26.1 24.4 9.9 36 9.1 SSE 9 17 5 9 1018.3 - 0.0
18/10:00am 24.7 22.5 9.4 38 8.4 SSE 11 15 6 8 1018.6 1017.6 0.0
18/09:30am 23.8 22.4 10.8 44 7.3 S 9 15 5 8 1018.9 - 0.0
18/09:00am 22.1 20.2 10.6 48 6.4 S 11 19 6 10 1019.1 1018.2 0.0
18/08:30am 20.4 19.6 11.6 57 4.9 S 7 11 4 6 1019.0 - 0.0
18/08:00am 17.7 16.5 11.5 67 3.4 SSE 9 11 5 6 1018.7 1017.8 0.0
18/07:30am 15.8 14.9 11.4 75 2.4 SSE 7 9 4 5 1018.7 - 0.0
18/07:00am 13.9 13.5 11.2 84 1.4 S 4 6 2 3 1018.5 1017.5 0.0
18/06:30am 12.8 12.0 10.9 88 1.0 SSE 6 7 3 4 1018.2 - 0.0
18/06:00am 12.5 11.6 10.7 89 0.9 S 6 6 3 3 1018.1 1017.1 0.0
18/05:30am 13.4 12.7 11.3 87 1.1 S 6 7 3 4 1017.9 - 0.0
18/05:00am 13.3 13.0 11.5 89 1.0 SSW 4 6 2 3 1017.9 1016.9 0.0
18/04:30am 13.8 13.5 11.3 85 1.3 SSW 4 6 2 3 1017.8 - 0.0
18/04:00am 14.3 14.8 11.6 84 1.5 CALM 0 2 0 1 1017.9 1016.9 0.0
18/03:30am 14.8 15.4 11.8 82 1.6 CALM 0 2 0 1 1017.8 - 0.0
18/03:00am 15.0 15.2 12.0 82 1.6 N 2 4 1 2 1017.8 1016.8 0.0
18/02:30am 14.4 14.6 11.9 85 1.4 N 2 4 1 2 1017.9 - 0.0
18/02:00am 15.9 15.4 11.9 77 2.2 SSE 6 6 3 3 1017.8 1016.8 0.0
18/01:30am 15.6 14.9 11.4 76 2.3 S 6 6 3 3 1017.9 - 0.0
18/01:00am 16.4 15.8 11.6 73 2.6 S 6 7 3 4 1017.9 1016.9 0.0
18/12:30am 17.4 16.7 12.1 71 2.9 SSE 7 7 4 4 1017.9 - 0.0
18/12:00am 17.3 16.6 12.0 71 2.9 SSE 7 7 4 4 1018.1 1017.1 0.0
 
Date/Time
EST
Temp
°C
App
Temp
°C
Dew
Point
Rel
Hum
%
Delta-T
°C
Wind Press
QNH
hPa
Press
MSL
hPa
Rain
since 9 am
mm
Dir
 
Spd
km/h
Gust
km/h
Spd
kts
Gust
kts
17/11:30pm 17.1 16.5 12.2 73 2.7 SSE 7 7 4 4 1018.1 - 0.0
17/11:00pm 18.2 17.8 12.4 69 3.2 SSE 6 6 3 3 1018.2 1017.2 0.0
17/10:30pm 18.1 17.6 12.1 68 3.3 SSE 6 7 3 4 1018.1 - 0.0
17/10:00pm 19.4 18.7 11.4 60 4.4 S 6 9 3 5 1017.9 1016.9 0.0
17/09:30pm 21.2 20.1 11.8 55 5.3 SSE 9 17 5 9 1017.8 - 0.0
17/09:00pm 20.7 19.2 11.9 57 5.0 SE 11 13 6 7 1017.5 1016.5 0.0
17/08:30pm 21.3 20.0 12.4 57 5.1 SE 11 15 6 8 1017.2 - 0.0
17/08:00pm 22.2 21.7 12.5 54 5.6 SE 7 7 4 4 1016.8 1015.8 0.0
17/07:30pm 22.5 22.1 13.0 55 5.5 SE 7 9 4 5 1016.4 - 0.0
17/07:00pm 22.5 21.7 13.0 55 5.5 SE 9 9 5 5 1016.0 1015.1 0.0
17/06:30pm 23.0 22.7 13.2 54 5.7 SE 7 9 4 5 1015.5 - 0.0
17/06:00pm 25.4 25.4 12.3 44 7.6 SSE 4 4 2 2 1015.2 1014.3 0.0
17/05:30pm 27.9 27.1 11.0 35 9.7 SSW 6 9 3 5 1015.0 - 0.0
17/05:00pm 29.0 28.1 10.6 32 10.5 S 6 11 3 6 1014.7 1013.8 0.0
17/04:30pm 29.3 28.4 11.4 33 10.4 SW 7 15 4 8 1014.5 - 0.0
17/04:00pm 29.6 28.8 11.6 33 10.5 SW 7 13 4 7 1014.5 1013.5 0.0

Other Formats:

Comma delimited format used in spreadsheet applications
http://www.bom.gov.au/fwo/IDQ60801/IDQ60801.94396.axf

JavaScript Object Notation format (JSON) in row-major order
http://www.bom.gov.au/fwo/IDQ60801/IDQ60801.94396.json